Time;durP1;ratioP1;P1;durP2;ratioP2;P2;SDS_P1;SDS_P2;PMS_P1;PMS_P2;Temp;Humidity;BMP_temperature;BMP_pressure;BME280_temperature;BME280_humidity;BME280_pressure;Samples;Min_cycle;Max_cycle;Signal;HPM_P1;HPM_P2
2022/05/05 00:02:26;;;;;;;;;;;10.90;98.70;;;;;;5068879;28;20027;-79
2022/05/05 00:04:53;;;;;;;;;;;11.00;98.90;;;;;;5069863;28;20397;-84
2022/05/05 00:07:19;;;;;;;;;;;10.90;98.90;;;;;;5066678;28;19975;-83
2022/05/05 00:09:46;;;;;;;;;;;11.00;98.90;;;;;;5064224;28;19931;-83
2022/05/05 00:14:57;;;;;;;;;;;11.10;98.50;;;;;;5058585;28;19936;-84
2022/05/05 00:17:24;;;;;;;;;;;11.10;98.40;;;;;;5065572;28;20302;-83
2022/05/05 00:19:51;;;;;;;;;;;11.20;98.30;;;;;;5064390;28;19931;-83
2022/05/05 00:22:18;;;;;;;;;;;11.20;98.10;;;;;;5062349;28;19931;-79
2022/05/05 00:24:45;;;;;;;;;;;11.20;98.30;;;;;;5069560;28;19984;-81
2022/05/05 00:27:11;;;;;;;;;;;11.30;98.60;;;;;;5064057;28;19925;-77
2022/05/05 00:29:38;;;;;;;;;;;11.20;99.20;;;;;;5058651;28;20338;-79
2022/05/05 00:32:05;;;;;;;;;;;11.10;99.80;;;;;;5058612;28;19956;-78
2022/05/05 00:34:32;;;;;;;;;;;11.00;99.90;;;;;;5066489;28;19924;-78
2022/05/05 00:37:00;;;;;;;;;;;11.00;99.90;;;;;;5059230;28;20010;-78
2022/05/05 00:39:26;;;;;;;;;;;11.00;99.90;;;;;;5049979;28;19934;-77
2022/05/05 00:41:53;;;;;;;;;;;11.00;99.90;;;;;;5068940;28;20003;-77
2022/05/05 00:44:20;;;;;;;;;;;11.00;99.90;;;;;;5052222;28;19935;-77
2022/05/05 00:46:48;;;;;;;;;;;11.00;99.90;;;;;;5054090;28;20616;-77
2022/05/05 00:49:15;;;;;;;;;;;10.90;99.90;;;;;;5053772;28;19932;-77
2022/05/05 00:51:42;;;;;;;;;;;10.90;99.90;;;;;;5055180;28;19929;-77
2022/05/05 00:54:10;;;;;;;;;;;10.90;99.90;;;;;;5056019;28;19993;-77
2022/05/05 00:56:37;;;;;;;;;;;10.90;99.90;;;;;;5056242;28;19924;-78
2022/05/05 00:59:05;;;;;;;;;;;11.00;99.90;;;;;;5050911;28;19933;-77
2022/05/05 01:01:32;;;;;;;;;;;11.00;99.90;;;;;;5059337;28;19928;-78
2022/05/05 01:03:59;;;;;;;;;;;11.00;99.90;;;;;;5053623;28;19932;-80
2022/05/05 01:06:25;;;;;;;;;;;11.10;99.90;;;;;;5065108;28;20166;-81
2022/05/05 01:08:52;;;;;;;;;;;11.10;99.90;;;;;;5071776;28;20462;-82
2022/05/05 01:11:20;;;;;;;;;;;11.10;99.90;;;;;;5057283;28;19936;-80
2022/05/05 01:13:47;;;;;;;;;;;11.00;99.90;;;;;;5047566;28;20005;-79
2022/05/05 01:16:14;;;;;;;;;;;11.00;99.90;;;;;;5052984;28;19975;-78
2022/05/05 01:18:41;;;;;;;;;;;10.90;99.90;;;;;;5052580;28;20471;-79
2022/05/05 01:21:10;;;;;;;;;;;10.80;99.90;;;;;;5068605;28;19929;-80
2022/05/05 01:23:38;;;;;;;;;;;10.80;99.90;;;;;;5051987;28;19925;-81
2022/05/05 01:28:49;;;;;;;;;;;10.70;99.90;;;;;;5035930;28;19971;-81
2022/05/05 01:31:16;;;;;;;;;;;10.80;99.90;;;;;;5058742;28;19931;-82
2022/05/05 01:33:43;;;;;;;;;;;10.80;99.90;;;;;;5054814;28;20273;-81
2022/05/05 01:36:09;;;;;;;;;;;10.90;99.90;;;;;;5060663;28;19932;-79
2022/05/05 01:38:40;;;;;;;;;;;11.00;99.90;;;;;;5054053;28;19933;-79
2022/05/05 01:41:09;;;;;;;;;;;11.00;99.90;;;;;;5052929;28;19924;-79
2022/05/05 01:43:35;;;;;;;;;;;11.00;99.90;;;;;;5071483;28;19931;-76
2022/05/05 01:46:02;;;;;;;;;;;11.10;99.90;;;;;;5051278;28;20020;-76
2022/05/05 01:48:29;;;;;;;;;;;11.10;99.90;;;;;;5058536;28;19924;-79
2022/05/05 01:50:56;;;;;;;;;;;11.20;99.90;;;;;;5067327;28;20345;-81
2022/05/05 01:53:24;;;;;;;;;;;11.10;99.90;;;;;;5051575;28;19945;-80
2022/05/05 01:55:50;;;;;;;;;;;11.10;99.90;;;;;;5061890;28;19931;-79
2022/05/05 01:58:19;;;;;;;;;;;11.10;99.90;;;;;;5058193;28;19925;-78
2022/05/05 02:00:45;;;;;;;;;;;11.00;99.90;;;;;;5063691;28;19924;-80
2022/05/05 02:03:15;;;;;;;;;;;10.90;99.90;;;;;;5046822;28;21175;-83
2022/05/05 02:05:42;;;;;;;;;;;10.80;99.90;;;;;;5061791;28;20391;-82
2022/05/05 02:08:09;;;;;;;;;;;10.90;99.90;;;;;;5055563;28;19924;-82
2022/05/05 02:10:35;;;;;;;;;;;10.90;99.90;;;;;;5065625;28;19924;-82
2022/05/05 02:13:02;;;;;;;;;;;10.90;99.90;;;;;;5059555;28;19928;-78
2022/05/05 02:15:31;;;;;;;;;;;10.90;99.90;;;;;;5062002;28;20611;-79
2022/05/05 02:17:58;;;;;;;;;;;10.90;99.90;;;;;;5048126;28;19929;-79
2022/05/05 02:20:24;;;;;;;;;;;11.00;99.90;;;;;;5042649;28;19925;-79
2022/05/05 02:22:51;;;;;;;;;;;11.00;99.90;;;;;;5052714;28;19932;-81
2022/05/05 02:25:18;;;;;;;;;;;11.00;99.90;;;;;;5063307;28;19929;-81
2022/05/05 02:27:45;;;;;;;;;;;11.00;99.90;;;;;;5062983;28;20302;-79
2022/05/05 02:30:12;;;;;;;;;;;11.10;99.90;;;;;;5054818;28;19925;-82
2022/05/05 02:32:42;;;;;;;;;;;11.20;99.90;;;;;;5048626;28;20372;-80
2022/05/05 02:35:09;;;;;;;;;;;11.30;99.90;;;;;;5062084;28;19970;-80
2022/05/05 02:40:19;;;;;;;;;;;11.30;99.90;;;;;;5010816;28;19925;-81
2022/05/05 02:42:46;;;;;;;;;;;11.40;99.90;;;;;;5054203;28;19931;-80
2022/05/05 02:45:12;;;;;;;;;;;11.40;99.90;;;;;;5051099;28;19931;-78
2022/05/05 02:47:40;;;;;;;;;;;11.40;99.90;;;;;;5044206;28;19924;-79
2022/05/05 02:50:07;;;;;;;;;;;11.40;99.90;;;;;;5050893;28;19979;-77
2022/05/05 02:52:34;;;;;;;;;;;11.40;99.90;;;;;;5047253;28;19925;-82
2022/05/05 02:55:01;;;;;;;;;;;11.40;99.90;;;;;;5052286;28;19999;-80
2022/05/05 02:57:28;;;;;;;;;;;11.50;99.90;;;;;;5056503;28;19979;-81
2022/05/05 02:59:55;;;;;;;;;;;11.50;99.90;;;;;;5058989;28;19930;-77
2022/05/05 03:02:22;;;;;;;;;;;11.60;99.90;;;;;;5051484;28;19982;-82
2022/05/05 03:04:50;;;;;;;;;;;11.60;99.90;;;;;;5049044;28;20346;-78
2022/05/05 03:07:17;;;;;;;;;;;11.60;99.90;;;;;;5057211;28;20033;-80
2022/05/05 03:09:44;;;;;;;;;;;11.50;99.90;;;;;;5069543;28;20391;-81
2022/05/05 03:12:11;;;;;;;;;;;11.50;99.90;;;;;;5050490;28;20027;-83
2022/05/05 03:14:38;;;;;;;;;;;11.50;99.90;;;;;;5055461;28;19931;-83
2022/05/05 03:17:04;;;;;;;;;;;11.50;99.90;;;;;;5055569;28;19972;-82
2022/05/05 03:19:31;;;;;;;;;;;11.50;99.90;;;;;;5064079;28;19928;-82
2022/05/05 03:21:59;;;;;;;;;;;11.50;99.90;;;;;;5051110;28;20083;-82
2022/05/05 03:24:26;;;;;;;;;;;11.50;99.90;;;;;;5070577;28;19956;-84
2022/05/05 03:26:52;;;;;;;;;;;11.40;99.90;;;;;;5065078;28;19960;-83
2022/05/05 03:29:19;;;;;;;;;;;11.50;99.90;;;;;;5055147;28;20387;-83
2022/05/05 03:31:46;;;;;;;;;;;11.40;99.90;;;;;;5045647;28;19925;-83
2022/05/05 03:34:12;;;;;;;;;;;11.40;99.90;;;;;;5058337;28;19947;-84
2022/05/05 03:36:39;;;;;;;;;;;11.40;99.90;;;;;;5059278;28;20085;-82
2022/05/05 03:39:07;;;;;;;;;;;11.40;99.90;;;;;;5060483;28;20371;-82
2022/05/05 03:41:34;;;;;;;;;;;11.40;99.90;;;;;;5057704;28;19931;-83
2022/05/05 03:44:00;;;;;;;;;;;11.50;99.90;;;;;;5067601;28;19924;-82
2022/05/05 03:46:27;;;;;;;;;;;11.50;99.90;;;;;;5054091;28;19929;-82
2022/05/05 03:48:54;;;;;;;;;;;11.50;99.90;;;;;;5055088;28;19975;-82
2022/05/05 03:51:20;;;;;;;;;;;11.50;99.90;;;;;;5055589;28;22602;-78
2022/05/05 03:53:47;;;;;;;;;;;11.50;99.90;;;;;;5068390;28;20028;-79
2022/05/05 03:56:15;;;;;;;;;;;11.50;99.90;;;;;;5056154;28;20007;-79
2022/05/05 03:58:42;;;;;;;;;;;11.50;99.90;;;;;;5058136;28;19931;-80
2022/05/05 04:01:08;;;;;;;;;;;11.50;99.90;;;;;;5038520;28;19935;-78
2022/05/05 04:03:41;;;;;;;;;;;11.50;99.90;;;;;;5058894;28;20016;-79
2022/05/05 04:06:08;;;;;;;;;;;11.50;99.90;;;;;;5048576;28;19929;-79
2022/05/05 04:08:35;;;;;;;;;;;11.50;99.90;;;;;;5069989;28;20015;-83
2022/05/05 04:11:02;;;;;;;;;;;11.50;99.90;;;;;;5060449;28;19931;-83
2022/05/05 04:13:30;;;;;;;;;;;11.50;99.90;;;;;;5058298;28;20383;-83
2022/05/05 04:15:57;;;;;;;;;;;11.50;99.90;;;;;;5061776;28;19932;-80
2022/05/05 04:18:23;;;;;;;;;;;11.50;99.90;;;;;;5045541;28;19968;-83
2022/05/05 04:20:50;;;;;;;;;;;11.50;99.90;;;;;;5058954;28;19930;-83
2022/05/05 04:23:17;;;;;;;;;;;11.40;99.90;;;;;;5053926;28;20023;-89
2022/05/05 04:25:44;;;;;;;;;;;11.40;99.90;;;;;;5052487;28;19936;-89
2022/05/05 04:28:11;;;;;;;;;;;11.40;99.90;;;;;;5054021;28;20028;-93
2022/05/05 04:30:40;;;;;;;;;;;11.40;99.90;;;;;;5043869;28;20024;-91
2022/05/05 04:33:07;;;;;;;;;;;11.40;99.90;;;;;;5056062;28;20303;-87
2022/05/05 04:35:35;;;;;;;;;;;11.40;99.90;;;;;;5058928;28;19929;-86
2022/05/05 04:38:01;;;;;;;;;;;11.40;99.90;;;;;;5063435;28;19924;-87
2022/05/05 04:40:28;;;;;;;;;;;11.40;99.90;;;;;;5048462;28;19932;-85
2022/05/05 04:42:54;;;;;;;;;;;11.40;99.90;;;;;;5065764;28;19956;-85
2022/05/05 04:45:21;;;;;;;;;;;11.40;99.90;;;;;;5054538;28;19925;-85
2022/05/05 04:47:50;;;;;;;;;;;11.40;99.90;;;;;;5050137;28;19925;-86
2022/05/05 04:50:17;;;;;;;;;;;11.40;99.90;;;;;;5054393;28;19925;-85
2022/05/05 04:52:44;;;;;;;;;;;11.40;99.90;;;;;;5062336;28;19925;-88
2022/05/05 04:55:11;;;;;;;;;;;11.50;99.90;;;;;;5057289;28;20015;-87
2022/05/05 04:57:38;;;;;;;;;;;11.50;99.90;;;;;;5062903;28;20031;-86
2022/05/05 05:00:06;;;;;;;;;;;11.60;99.90;;;;;;5060943;28;19928;-86
2022/05/05 05:02:33;;;;;;;;;;;11.70;99.90;;;;;;5059697;28;19931;-87
2022/05/05 05:05:01;;;;;;;;;;;11.70;99.90;;;;;;5058449;28;19925;-88
2022/05/05 05:07:27;;;;;;;;;;;11.90;99.90;;;;;;5064199;28;19925;-87
2022/05/05 05:09:54;;;;;;;;;;;11.90;99.90;;;;;;5063884;28;19924;-88
2022/05/05 05:12:21;;;;;;;;;;;11.90;99.90;;;;;;5056325;28;20028;-88
2022/05/05 05:14:47;;;;;;;;;;;12.00;99.90;;;;;;5059972;28;19960;-87
2022/05/05 05:17:15;;;;;;;;;;;12.10;99.90;;;;;;5055674;28;20032;-89
2022/05/05 05:19:42;;;;;;;;;;;12.20;99.90;;;;;;5064065;28;19987;-88
2022/05/05 05:22:09;;;;;;;;;;;12.30;99.90;;;;;;5054279;28;20417;-85
2022/05/05 05:24:37;;;;;;;;;;;12.40;99.90;;;;;;5051740;28;20462;-85
2022/05/05 05:27:04;;;;;;;;;;;12.60;99.90;;;;;;5046028;28;19936;-85
2022/05/05 05:29:31;;;;;;;;;;;12.70;99.90;;;;;;5057921;28;19925;-77
2022/05/05 05:31:57;;;;;;;;;;;12.80;99.90;;;;;;5054642;28;19931;-84
2022/05/05 05:34:24;;;;;;;;;;;12.90;99.90;;;;;;5053969;28;19935;-86
2022/05/05 05:36:51;;;;;;;;;;;13.00;99.90;;;;;;5043583;28;20483;-86
2022/05/05 05:39:19;;;;;;;;;;;13.00;99.90;;;;;;5047072;28;20457;-88
2022/05/05 05:41:45;;;;;;;;;;;13.00;99.90;;;;;;5044744;28;20383;-87
2022/05/05 05:44:12;;;;;;;;;;;12.90;99.90;;;;;;5051501;28;19932;-89
2022/05/05 05:46:39;;;;;;;;;;;13.00;99.90;;;;;;5049337;28;20303;-85
2022/05/05 05:49:06;;;;;;;;;;;12.90;99.90;;;;;;5046059;28;20391;-83
2022/05/05 05:51:33;;;;;;;;;;;12.90;99.90;;;;;;5049167;28;19925;-86
2022/05/05 05:53:59;;;;;;;;;;;12.80;99.90;;;;;;5053695;28;20323;-88
2022/05/05 05:56:30;;;;;;;;;;;12.80;99.90;;;;;;5047419;28;19929;-84
2022/05/05 05:58:57;;;;;;;;;;;12.80;99.90;;;;;;5046552;28;20048;-81
2022/05/05 06:03:53;;;;;;;;;;;12.80;99.90;;;;;;5056627;28;19931;-86
2022/05/05 06:04:10;;;;;;;;;;;12.80;99.90;;;;;;5057159;28;19925;-86
2022/05/05 06:06:36;;;;;;;;;;;12.90;99.90;;;;;;5054899;28;19973;-84
2022/05/05 06:09:03;;;;;;;;;;;12.80;99.90;;;;;;5049513;28;19925;-84
2022/05/05 06:11:32;;;;;;;;;;;12.90;99.90;;;;;;5043233;28;19933;-80
2022/05/05 06:13:59;;;;;;;;;;;12.90;99.90;;;;;;5049634;28;19933;-86
2022/05/05 06:16:27;;;;;;;;;;;13.00;99.90;;;;;;5049960;28;20050;-82
2022/05/05 06:18:54;;;;;;;;;;;13.00;99.90;;;;;;5045885;28;19964;-85
2022/05/05 06:21:20;;;;;;;;;;;13.00;99.90;;;;;;5048138;28;20509;-84
2022/05/05 06:23:47;;;;;;;;;;;13.00;99.90;;;;;;5052840;28;20295;-85
2022/05/05 06:26:14;;;;;;;;;;;13.00;99.90;;;;;;5051513;28;20615;-81
2022/05/05 06:28:43;;;;;;;;;;;13.00;99.90;;;;;;5050831;28;20398;-84
2022/05/05 06:31:11;;;;;;;;;;;13.10;99.90;;;;;;5047965;28;19970;-81
2022/05/05 06:33:38;;;;;;;;;;;13.20;99.90;;;;;;5041324;28;19929;-83
2022/05/05 06:36:04;;;;;;;;;;;13.20;99.90;;;;;;5043398;28;19929;-84
2022/05/05 06:38:32;;;;;;;;;;;13.30;99.90;;;;;;5050137;28;19925;-83
2022/05/05 06:40:59;;;;;;;;;;;13.30;99.90;;;;;;5051376;28;19930;-82
2022/05/05 06:43:26;;;;;;;;;;;13.50;99.90;;;;;;5047418;28;19996;-81
2022/05/05 06:45:54;;;;;;;;;;;13.60;99.90;;;;;;5045532;28;19951;-82
2022/05/05 06:48:21;;;;;;;;;;;13.70;99.90;;;;;;5054826;28;19925;-82
2022/05/05 06:50:48;;;;;;;;;;;13.60;99.90;;;;;;5053094;28;20012;-83
2022/05/05 06:53:15;;;;;;;;;;;13.70;99.90;;;;;;5043354;28;19933;-81
2022/05/05 06:55:42;;;;;;;;;;;13.70;99.90;;;;;;5043224;28;20016;-84
2022/05/05 06:58:09;;;;;;;;;;;13.70;99.90;;;;;;5040544;28;20380;-82
2022/05/05 07:03:21;;;;;;;;;;;13.80;99.90;;;;;;5044450;28;20355;-83
2022/05/05 07:05:47;;;;;;;;;;;14.00;99.90;;;;;;5046840;28;19924;-84
2022/05/05 07:08:14;;;;;;;;;;;14.00;99.90;;;;;;5045077;28;20027;-80
2022/05/05 07:10:54;;;;;;;;;;;14.20;99.90;;;;;;5047731;28;19925;-82
2022/05/05 07:13:22;;;;;;;;;;;14.40;99.90;;;;;;5049269;28;19925;-85
2022/05/05 07:15:48;;;;;;;;;;;14.80;99.90;;;;;;5046306;28;19943;-81
2022/05/05 07:18:15;;;;;;;;;;;14.90;99.90;;;;;;5050309;28;20043;-81
2022/05/05 07:20:43;;;;;;;;;;;15.10;99.90;;;;;;5051189;28;19939;-83
2022/05/05 07:23:12;;;;;;;;;;;15.20;99.90;;;;;;5046354;28;19931;-83
2022/05/05 07:25:39;;;;;;;;;;;15.30;99.90;;;;;;5052701;28;20422;-83
2022/05/05 07:28:06;;;;;;;;;;;15.40;99.90;;;;;;5047603;28;19960;-83
2022/05/05 07:30:33;;;;;;;;;;;15.50;99.90;;;;;;5046219;28;19925;-81
2022/05/05 07:33:00;;;;;;;;;;;15.40;99.90;;;;;;5043818;28;19955;-75
2022/05/05 07:35:27;;;;;;;;;;;15.40;99.90;;;;;;5047530;28;19932;-76
2022/05/05 07:37:55;;;;;;;;;;;15.60;99.90;;;;;;5043860;28;19935;-73
2022/05/05 07:40:21;;;;;;;;;;;15.50;99.90;;;;;;5040947;28;19955;-74
2022/05/05 07:42:48;;;;;;;;;;;15.50;99.90;;;;;;5040199;28;19968;-75
2022/05/05 07:45:14;;;;;;;;;;;15.60;99.90;;;;;;5052345;28;19947;-83
2022/05/05 07:47:41;;;;;;;;;;;15.90;99.90;;;;;;5044302;28;19931;-82
2022/05/05 07:50:09;;;;;;;;;;;15.80;98.60;;;;;;5038545;28;20131;-83
2022/05/05 07:52:36;;;;;;;;;;;15.80;99.90;;;;;;5037333;28;19935;-82
2022/05/05 07:55:04;;;;;;;;;;;15.90;99.90;;;;;;5039232;28;19925;-79
2022/05/05 07:57:31;;;;;;;;;;;16.10;99.40;;;;;;5040520;28;20359;-82
2022/05/05 07:59:58;;;;;;;;;;;16.30;99.10;;;;;;5041610;28;19939;-78
2022/05/05 08:02:24;;;;;;;;;;;16.30;98.20;;;;;;5045886;28;19925;-80
2022/05/05 08:04:53;;;;;;;;;;;16.30;97.90;;;;;;5046213;28;20295;-82
2022/05/05 08:07:20;;;;;;;;;;;16.20;97.90;;;;;;5044986;28;19925;-82
2022/05/05 08:09:47;;;;;;;;;;;16.10;98.10;;;;;;5045525;28;19932;-85
2022/05/05 08:12:16;;;;;;;;;;;16.10;98.20;;;;;;5048369;28;19935;-82
2022/05/05 08:14:43;;;;;;;;;;;16.40;98.40;;;;;;5053512;28;21840;-81
2022/05/05 08:17:09;;;;;;;;;;;16.30;97.20;;;;;;5057915;28;20274;-80
2022/05/05 08:19:36;;;;;;;;;;;16.20;98.00;;;;;;5051850;28;19933;-81
2022/05/05 08:22:03;;;;;;;;;;;16.40;97.80;;;;;;5049318;28;20022;-79
2022/05/05 08:30:02;;;;;;;;;;;16.90;95.40;;;;;;5045405;28;20014;-80
2022/05/05 08:32:29;;;;;;;;;;;17.00;94.80;;;;;;5046327;28;19932;-79
2022/05/05 08:34:56;;;;;;;;;;;17.20;94.80;;;;;;5048750;28;20448;-80
2022/05/05 08:37:22;;;;;;;;;;;17.20;93.70;;;;;;5045940;28;20427;-79
2022/05/05 08:39:49;;;;;;;;;;;17.40;93.90;;;;;;5043248;28;20023;-81
2022/05/05 08:42:16;;;;;;;;;;;17.50;93.40;;;;;;5039613;28;20027;-80
2022/05/05 08:44:44;;;;;;;;;;;17.40;93.10;;;;;;5042880;28;20383;-81
2022/05/05 08:47:11;;;;;;;;;;;17.40;92.60;;;;;;5049496;28;19939;-80
2022/05/05 08:49:38;;;;;;;;;;;17.40;92.80;;;;;;5049697;28;20300;-80
2022/05/05 08:52:07;;;;;;;;;;;17.60;92.20;;;;;;5049618;28;19933;-81
2022/05/05 08:54:35;;;;;;;;;;;17.70;91.00;;;;;;5050355;28;19924;-81
2022/05/05 08:57:02;;;;;;;;;;;17.80;86.50;;;;;;5048874;28;20020;-81
2022/05/05 08:59:29;;;;;;;;;;;17.80;87.10;;;;;;5045604;28;19936;-80
2022/05/05 09:01:57;;;;;;;;;;;18.10;87.60;;;;;;5048052;28;20334;-81
2022/05/05 09:04:23;;;;;;;;;;;18.50;83.30;;;;;;5050409;28;19933;-80
2022/05/05 09:06:51;;;;;;;;;;;18.90;80.50;;;;;;5046474;28;20695;-81
2022/05/05 09:09:24;;;;;;;;;;;19.00;80.00;;;;;;5044012;28;20063;-80
2022/05/05 09:12:23;;;;;;;;;;;19.10;77.90;;;;;;5043203;28;20055;-81
2022/05/05 09:14:50;;;;;;;;;;;18.60;79.90;;;;;;5055452;28;20334;-81
2022/05/05 09:17:19;;;;;;;;;;;17.30;86.00;;;;;;5042562;28;19960;-80
2022/05/05 09:19:46;;;;;;;;;;;18.70;87.50;;;;;;5051396;28;19932;-80
2022/05/05 09:22:14;;;;;;;;;;;19.50;78.50;;;;;;5052044;28;20008;-79
2022/05/05 09:24:44;;;;;;;;;;;18.60;77.80;;;;;;5046369;28;19931;-79
2022/05/05 09:27:15;;;;;;;;;;;19.00;80.40;;;;;;5055167;28;19964;-81
2022/05/05 09:29:42;;;;;;;;;;;19.60;70.50;;;;;;5053338;28;20014;-80
2022/05/05 09:32:10;;;;;;;;;;;20.50;70.60;;;;;;5050506;28;20018;-78
2022/05/05 09:34:39;;;;;;;;;;;21.10;65.80;;;;;;5050306;28;20291;-78
2022/05/05 09:37:18;;;;;;;;;;;20.90;61.70;;;;;;5049472;28;19925;-80
2022/05/05 09:39:44;;;;;;;;;;;20.40;61.50;;;;;;5050330;28;19925;-82
2022/05/05 09:42:11;;;;;;;;;;;19.80;62.60;;;;;;5049476;28;19935;-83
2022/05/05 09:44:44;;;;;;;;;;;19.90;62.60;;;;;;5050169;28;20012;-79
2022/05/05 09:47:14;;;;;;;;;;;20.90;61.30;;;;;;5040385;28;19931;-78
2022/05/05 09:49:57;;;;;;;;;;;21.20;58.80;;;;;;5049208;28;20027;-79
2022/05/05 09:57:55;;;;;;;;;;;23.20;44.60;;;;;;5047696;28;20066;-76
2022/05/05 10:00:43;;;;;;;;;;;22.00;44.60;;;;;;5049386;28;20264;-77
2022/05/05 10:05:57;;;;;;;;;;;20.30;49.10;;;;;;5050020;28;20155;-80
2022/05/05 10:08:26;;;;;;;;;;;20.10;50.50;;;;;;5048573;28;19925;-78
2022/05/05 10:10:53;;;;;;;;;;;20.00;48.90;;;;;;5048660;28;19925;-78
2022/05/05 10:13:21;;;;;;;;;;;19.50;51.90;;;;;;5038423;28;20023;-78
2022/05/05 10:15:48;;;;;;;;;;;19.40;52.90;;;;;;5042457;28;19977;-79
2022/05/05 10:18:16;;;;;;;;;;;19.60;54.80;;;;;;5038803;28;19978;-79
2022/05/05 10:20:44;;;;;;;;;;;19.70;53.60;;;;;;5045302;28;20319;-77
2022/05/05 10:23:14;;;;;;;;;;;19.80;55.00;;;;;;5052027;28;19994;-78
2022/05/05 10:25:41;;;;;;;;;;;19.30;55.40;;;;;;5045749;28;20148;-78
2022/05/05 10:28:23;;;;;;;;;;;18.90;57.60;;;;;;5043593;28;20268;-80
2022/05/05 10:30:49;;;;;;;;;;;18.70;59.00;;;;;;5044474;28;20486;-77
2022/05/05 10:33:16;;;;;;;;;;;18.50;58.30;;;;;;5048257;28;19929;-76
2022/05/05 10:35:47;;;;;;;;;;;18.30;59.10;;;;;;5049675;28;19925;-79
2022/05/05 10:38:32;;;;;;;;;;;18.10;61.70;;;;;;5050288;28;20402;-78
2022/05/05 10:41:00;;;;;;;;;;;18.20;61.40;;;;;;5051241;28;19925;-78
2022/05/05 10:43:32;;;;;;;;;;;18.60;60.30;;;;;;5044266;28;20019;-78
2022/05/05 10:45:59;;;;;;;;;;;19.00;58.90;;;;;;5046823;28;20292;-79
2022/05/05 10:48:34;;;;;;;;;;;19.30;58.20;;;;;;5050494;28;20015;-79
2022/05/05 10:51:07;;;;;;;;;;;19.20;56.20;;;;;;5049325;28;20443;-79
2022/05/05 10:53:36;;;;;;;;;;;18.70;58.40;;;;;;5055783;28;20015;-78
2022/05/05 10:56:05;;;;;;;;;;;19.40;57.20;;;;;;5050278;28;19939;-76
2022/05/05 10:58:51;;;;;;;;;;;19.80;55.90;;;;;;5052020;28;20395;-75
2022/05/05 11:01:17;;;;;;;;;;;20.10;55.20;;;;;;5044481;28;19936;-76
2022/05/05 11:03:59;;;;;;;;;;;20.40;55.20;;;;;;5057290;28;20015;-75
2022/05/05 11:06:30;;;;;;;;;;;20.50;55.60;;;;;;5055195;28;20410;-81
2022/05/05 11:08:57;;;;;;;;;;;20.30;55.70;;;;;;5047972;28;19928;-78
2022/05/05 11:11:44;;;;;;;;;;;20.20;56.30;;;;;;5039840;28;19944;-76
2022/05/05 11:22:42;;;;;;;;;;;18.90;58.10;;;;;;5019377;28;19929;-81
2022/05/05 11:25:08;;;;;;;;;;;18.80;59.80;;;;;;5044403;28;19950;-80
2022/05/05 11:27:36;;;;;;;;;;;19.10;59.50;;;;;;5038247;28;19928;-79
2022/05/05 11:30:04;;;;;;;;;;;19.20;57.90;;;;;;5037678;28;20238;-79
2022/05/05 11:32:32;;;;;;;;;;;19.00;57.70;;;;;;5046079;28;20631;-79
2022/05/05 11:35:00;;;;;;;;;;;19.10;58.20;;;;;;5051790;28;20259;-82
2022/05/05 11:37:27;;;;;;;;;;;18.90;57.50;;;;;;5048016;28;19925;-81
2022/05/05 11:39:54;;;;;;;;;;;18.30;59.20;;;;;;5045337;28;20023;-78
2022/05/05 11:42:20;;;;;;;;;;;18.20;59.90;;;;;;5053634;28;20011;-78
2022/05/05 11:44:48;;;;;;;;;;;18.30;60.10;;;;;;5047985;28;20023;-79
2022/05/05 11:47:16;;;;;;;;;;;18.30;60.10;;;;;;5047887;28;19929;-78
2022/05/05 11:49:46;;;;;;;;;;;18.20;60.00;;;;;;5048099;28;19935;-76
2022/05/05 11:52:15;;;;;;;;;;;18.10;61.00;;;;;;5054297;28;19925;-75
2022/05/05 11:54:47;;;;;;;;;;;17.90;59.50;;;;;;5048356;28;20394;-75
2022/05/05 11:57:14;;;;;;;;;;;17.90;59.30;;;;;;5051723;28;19932;-76
2022/05/05 12:02:26;;;;;;;;;;;18.20;58.90;;;;;;5044993;28;20279;-76
2022/05/05 12:04:53;;;;;;;;;;;18.40;57.80;;;;;;5046817;28;20023;-77
2022/05/05 12:07:20;;;;;;;;;;;18.50;57.80;;;;;;5039720;28;20610;-76
2022/05/05 12:09:48;;;;;;;;;;;18.60;55.20;;;;;;5043087;28;19925;-76
2022/05/05 12:12:16;;;;;;;;;;;18.70;55.30;;;;;;5042029;28;19932;-76
2022/05/05 12:14:44;;;;;;;;;;;18.90;55.80;;;;;;5044694;28;19936;-76
2022/05/05 12:17:19;;;;;;;;;;;18.90;55.20;;;;;;5043083;28;19936;-76
2022/05/05 12:19:48;;;;;;;;;;;18.90;56.40;;;;;;5038829;28;19932;-78
2022/05/05 12:22:15;;;;;;;;;;;19.20;55.30;;;;;;5039907;28;19933;-77
2022/05/05 12:24:46;;;;;;;;;;;19.20;54.40;;;;;;5043476;28;19971;-77
2022/05/05 12:27:13;;;;;;;;;;;19.50;54.80;;;;;;5037442;28;19928;-76
2022/05/05 12:29:40;;;;;;;;;;;19.70;52.10;;;;;;5037552;28;20159;-76
2022/05/05 12:32:11;;;;;;;;;;;19.70;52.20;;;;;;5050871;28;19925;-75
2022/05/05 12:34:39;;;;;;;;;;;19.80;51.90;;;;;;5044869;28;20020;-77
2022/05/05 12:37:08;;;;;;;;;;;19.90;53.20;;;;;;5041863;28;19963;-75
2022/05/05 12:39:34;;;;;;;;;;;20.00;52.50;;;;;;5038755;28;20363;-77
2022/05/05 12:42:01;;;;;;;;;;;20.40;50.10;;;;;;5043460;28;19940;-77
2022/05/05 12:44:35;;;;;;;;;;;20.60;49.60;;;;;;5042850;28;19944;-77
2022/05/05 12:47:03;;;;;;;;;;;20.00;48.00;;;;;;5048965;28;20494;-77
2022/05/05 12:49:33;;;;;;;;;;;20.10;47.00;;;;;;5048991;28;19932;-79
2022/05/05 12:52:00;;;;;;;;;;;19.70;47.40;;;;;;5045127;28;20319;-78
2022/05/05 12:59:57;;;;;;;;;;;19.20;55.90;;;;;;5043919;28;19926;-78
2022/05/05 13:02:24;;;;;;;;;;;18.50;61.50;;;;;;5048614;28;20303;-77
2022/05/05 13:04:51;;;;;;;;;;;18.00;65.20;;;;;;5052996;28;19998;-77
2022/05/05 13:07:19;;;;;;;;;;;18.00;66.50;;;;;;5056434;28;19931;-75
2022/05/05 13:09:47;;;;;;;;;;;17.70;69.10;;;;;;5045630;28;19937;-76
2022/05/05 13:12:13;;;;;;;;;;;17.50;70.00;;;;;;5045395;28;20036;-72
2022/05/05 13:14:40;;;;;;;;;;;17.40;72.00;;;;;;5044710;28;19933;-73
2022/05/05 13:17:07;;;;;;;;;;;17.50;75.10;;;;;;5042985;28;19939;-75
2022/05/05 13:19:33;;;;;;;;;;;17.70;74.00;;;;;;5047903;28;20023;-72
2022/05/05 13:22:00;;;;;;;;;;;17.70;73.00;;;;;;5047920;28;19924;-74
2022/05/05 13:24:27;;;;;;;;;;;17.90;74.00;;;;;;5046503;28;20288;-72
2022/05/05 13:26:57;;;;;;;;;;;17.80;72.60;;;;;;5040969;28;19935;-77
2022/05/05 13:29:23;;;;;;;;;;;17.80;72.20;;;;;;5054576;28;20004;-81
2022/05/05 13:31:50;;;;;;;;;;;17.80;74.40;;;;;;5047387;28;19925;-76
2022/05/05 13:34:17;;;;;;;;;;;17.80;73.10;;;;;;5051407;28;19983;-77
2022/05/05 13:36:43;;;;;;;;;;;17.50;72.50;;;;;;5062338;28;19968;-77
2022/05/05 13:39:10;;;;;;;;;;;17.40;74.20;;;;;;5049740;28;20452;-77
2022/05/05 13:41:37;;;;;;;;;;;17.40;74.10;;;;;;5050369;28;19950;-78
2022/05/05 13:44:05;;;;;;;;;;;17.40;72.80;;;;;;5049908;28;19925;-78
2022/05/05 13:46:32;;;;;;;;;;;17.60;73.60;;;;;;5044702;28;19929;-76
2022/05/05 13:49:00;;;;;;;;;;;17.70;73.50;;;;;;5042474;28;20011;-77
2022/05/05 13:51:27;;;;;;;;;;;17.60;75.90;;;;;;5040806;28;19929;-76
2022/05/05 13:53:54;;;;;;;;;;;17.60;79.00;;;;;;5042677;28;20027;-74
2022/05/05 13:56:20;;;;;;;;;;;17.80;82.30;;;;;;5037876;28;19939;-81
2022/05/05 13:58:47;;;;;;;;;;;17.60;85.20;;;;;;5040103;28;20007;-77
2022/05/05 14:01:15;;;;;;;;;;;17.40;86.30;;;;;;5039100;28;19943;-79
2022/05/05 14:03:42;;;;;;;;;;;17.50;90.50;;;;;;5043973;28;19929;-77
2022/05/05 14:06:09;;;;;;;;;;;17.60;91.80;;;;;;5040554;28;20284;-78
2022/05/05 14:14:04;;;;;;;;;;;17.50;91.20;;;;;;5041464;28;20414;-77
2022/05/05 14:16:32;;;;;;;;;;;17.40;91.40;;;;;;5042930;28;19972;-76
2022/05/05 14:19:00;;;;;;;;;;;17.30;91.80;;;;;;5041534;28;20033;-74
2022/05/05 14:21:27;;;;;;;;;;;17.10;91.90;;;;;;5046172;28;20012;-76
2022/05/05 14:23:54;;;;;;;;;;;17.20;93.60;;;;;;5054256;28;20019;-77
2022/05/05 14:26:21;;;;;;;;;;;17.10;92.00;;;;;;5044404;28;19972;-77
2022/05/05 14:28:48;;;;;;;;;;;17.00;90.70;;;;;;5046915;28;19925;-79
2022/05/05 14:31:15;;;;;;;;;;;17.00;91.60;;;;;;5042522;28;20011;-76
2022/05/05 14:33:46;;;;;;;;;;;17.00;91.80;;;;;;5043491;28;20011;-76
2022/05/05 14:36:13;;;;;;;;;;;17.00;91.20;;;;;;5041402;28;20028;-73
2022/05/05 14:38:39;;;;;;;;;;;16.80;91.50;;;;;;5038696;28;20624;-77
2022/05/05 14:41:06;;;;;;;;;;;16.50;92.20;;;;;;5045540;28;19943;-78
2022/05/05 14:43:33;;;;;;;;;;;16.40;93.80;;;;;;5042455;28;19947;-76
2022/05/05 14:45:59;;;;;;;;;;;16.30;95.20;;;;;;5042539;28;20045;-79
2022/05/05 14:48:28;;;;;;;;;;;16.30;97.40;;;;;;5043111;28;19956;-77
2022/05/05 14:50:56;;;;;;;;;;;16.30;98.90;;;;;;5046841;28;19932;-76
2022/05/05 14:53:23;;;;;;;;;;;16.30;99.90;;;;;;5041187;28;19972;-80
2022/05/05 14:55:50;;;;;;;;;;;16.30;99.90;;;;;;5044716;28;19936;-84
2022/05/05 14:58:18;;;;;;;;;;;16.30;99.90;;;;;;5046811;28;19933;-79
2022/05/05 15:00:45;;;;;;;;;;;16.20;99.90;;;;;;5050170;28;19929;-79
2022/05/05 15:03:11;;;;;;;;;;;15.70;99.90;;;;;;5046775;28;19947;-77
2022/05/05 15:05:38;;;;;;;;;;;15.70;99.90;;;;;;5046024;28;19948;-79
2022/05/05 15:08:06;;;;;;;;;;;15.80;99.90;;;;;;5046503;28;19931;-76